FNLUFNSA

Guest
Details From FNLU - LUANDA 4 DE FEVEREIRO
To FNSA - SAURIMO
Flight Number -
Tags generated
Created
Modified
Stats Distance 432 nm / 800 km
Max Altitude 35,000 ft / 10,668 m
Waypoints 6
Social Downloads 0
Likes 0
Share VATSIM

Download

Looking for another format? Having issues loading an existing format? Contact us
Advertisement - Login to hide

Notes

Basic altitude profile: - Ascent Rate: 2500ft/min - Ascent Speed: 250kts - Cruise Altitude: 35000ft - Cruise Speed: 420kts - Descent Rate: 1500ft/min - Descent Speed: 250kts Options: - Use NATs: yes - Use PACOTS: yes - Use low airways: yes - Use high airways: yes

Route

FNLU AVOVA H600F DEPAN UH600F MA H600F SA FNSA

ID Type Via Altitude Latitude Longitude Leg Dist Tot Dist Heading (true) Name
O FNLU APT - 0 ft / 0 m -8.85838˚ 13.23118˚ - 0 nm - LUANDA 4 DE FEVEREIRO
AVOVA FIX - 29,200 ft / 8,900 m -9.13917˚ 14.58056˚ 81 nm 81 nm 102° / 102° -
DEPAN FIX H600F (AWY-LO) 15,500 ft / 4,724 m -9.30000˚ 15.25000˚ 40 nm 122 nm 104° / 104° -
MA NDB UH600F (AWY-HI) 35,000 ft / 10,668 m -9.55000˚ 16.36667˚ 67 nm 190 nm 103° / 103° MALANJE NDB
SA NDB H600F (AWY-LO) 6,000 ft / 1,829 m -9.66227˚ 20.39964˚ 238 nm 429 nm 92° / 91° SAURIMO NDB
O FNSA APT - 0 ft / 0 m -9.68907˚ 20.43187˚ 2 nm 431 nm 130° / 130° SAURIMO

Altitude Profile

Advertisement - Login to hide

Weather


0- 5 10 15 20 25 30 35+ Temperature / ° C

Clouds and Precipitation
Forecast for 2018-05-22 00:00 UTC. Updated 4 hours ago

Ground ~20,000 ft ~40,000 ft Winds

FNLU

Details ICAO FNLU (LAD)
Name LUANDA 4 DE FEVEREIRO
Region Angola
Timezone Africa/Luanda (UTC+1.0)
Stats Elevation 243 ft / 74 m (AMSL)
Location -8.858377° 13.231178°
Runways 2
Magnetic Variation 3.409° W

METAR

Not found

TAF

TAF FNLU 212300Z 2200/2306 14004KT 8000 NSC PROB30 TEMPO 2203/2207 VRB03KT 9000 BKN020 BECMG 2210/2212 28010KT 9999 FEW020 BKN050 TEMPO 2220/2222 22008KT CAVOK BECMG 2300/2303 16004KT 8000 NSC

Decode

Departure Runways

ID Width Length Bearing (true) Bearing (mag) Surface Threshold Offset Overrun Length
05 148 ft / 45 m 12,153 ft / 3,704 m 46.63° 50.04° Asphalt 0 ft / 0 m 0 ft / 0 m
07 197 ft / 60 m 8,176 ft / 2,492 m 67.40° 70.81° Asphalt 0 ft / 0 m 176 ft / 54 m
23 148 ft / 45 m 12,153 ft / 3,704 m 226.62° 230.03° Asphalt 500 ft / 152 m 0 ft / 0 m
25 197 ft / 60 m 8,176 ft / 2,492 m 247.40° 250.81° Asphalt 0 ft / 0 m 0 ft / 0 m

FNSA

Details ICAO FNSA (VHC)
Name SAURIMO
Region Angola
Timezone Africa/Luanda (UTC+1.0)
Stats Elevation 3,584 ft / 1,092 m (AMSL)
Location -9.689066° 20.431875°
Runways 1
Magnetic Variation 1.821° W

METAR

Not found

TAF

TAF FNSA 212300Z 2200/2212 VRB03KT 9000 FEW020 PROB30 TEMPO 2206/2211 09005KT CAVOK

Decode

Destination Runways

ID Width Length Bearing (true) Bearing (mag) Surface Threshold Offset Overrun Length
14 148 ft / 45 m 11,186 ft / 3,409 m 130.13° 131.95° Asphalt 2,953 ft / 900 m 0 ft / 0 m
32 148 ft / 45 m 11,186 ft / 3,409 m 310.12° 311.94° Asphalt 0 ft / 0 m 0 ft / 0 m

Popular Alternatives